createdAt,value
2022-11-26T00:00:33.099Z,8.20
2022-11-26T00:05:34.414Z,8.23
2022-11-26T00:10:36.374Z,8.26
2022-11-26T00:15:37.812Z,8.21
2022-11-26T00:20:39.889Z,8.06
2022-11-26T00:25:48.395Z,8.04
2022-11-26T00:30:49.921Z,8.04
2022-11-26T00:35:55.587Z,7.93
2022-11-26T00:40:57.763Z,7.83
2022-11-26T00:45:59.120Z,7.96
2022-11-26T00:51:00.439Z,8.02
2022-11-26T00:56:01.759Z,8.00
2022-11-26T01:01:03.032Z,7.75
2022-11-26T01:06:04.471Z,7.77
2022-11-26T01:11:06.030Z,7.65
2022-11-26T01:16:18.844Z,7.63
2022-11-26T01:21:20.716Z,7.52
2022-11-26T01:26:27.839Z,7.48
2022-11-26T01:31:30.243Z,7.47
2022-11-26T01:36:34.720Z,7.42
2022-11-26T01:42:14.608Z,7.39
2022-11-26T01:47:23.925Z,7.34
2022-11-26T01:52:26.248Z,7.22
2022-11-26T01:57:30.304Z,7.20
2022-11-26T02:02:31.703Z,7.15
2022-11-26T02:07:34.342Z,7.08
2022-11-26T02:12:37.323Z,7.20
2022-11-26T02:17:57.719Z,7.14
2022-11-26T02:23:27.976Z,7.26
2022-11-26T02:28:51.789Z,7.31
2022-11-26T02:33:56.480Z,7.26
2022-11-26T02:38:57.882Z,7.26
2022-11-26T02:43:59.238Z,7.23
2022-11-26T02:49:01.981Z,7.37
2022-11-26T02:54:06.130Z,7.34
2022-11-26T02:59:07.721Z,7.44
2022-11-26T03:04:15.998Z,7.30
2022-11-26T03:09:18.516Z,7.36
2022-11-26T03:14:19.775Z,7.34
2022-11-26T03:19:21.056Z,7.27
2022-11-26T03:24:22.345Z,7.26
2022-11-26T03:29:23.959Z,7.23
2022-11-26T03:34:25.573Z,7.34
2022-11-26T03:39:26.850Z,7.25
2022-11-26T03:44:28.100Z,7.08
2022-11-26T03:49:29.404Z,7.19
2022-11-26T03:54:30.831Z,7.12
2022-11-26T03:59:32.078Z,7.06
2022-11-26T04:04:33.878Z,6.85
2022-11-26T04:09:35.219Z,6.81
2022-11-26T04:14:36.820Z,6.93
2022-11-26T04:19:38.348Z,6.84
2022-11-26T04:24:39.999Z,6.90
2022-11-26T04:29:41.541Z,6.86
2022-11-26T04:34:42.767Z,6.89
2022-11-26T04:39:44.021Z,6.82
2022-11-26T04:44:45.267Z,6.81
2022-11-26T04:49:46.555Z,6.82
2022-11-26T04:54:47.799Z,6.75
2022-11-26T04:59:49.019Z,6.72
2022-11-26T05:04:50.318Z,6.78
2022-11-26T05:09:51.795Z,6.75
2022-11-26T05:14:53.244Z,6.68
2022-11-26T05:19:54.503Z,6.65
2022-11-26T05:24:55.741Z,6.68
2022-11-26T05:29:57.098Z,6.67
2022-11-26T05:35:00.177Z,6.66
2022-11-26T05:40:02.329Z,6.59
2022-11-26T05:45:04.580Z,6.74
2022-11-26T05:50:06.584Z,6.71
2022-11-26T05:55:08.720Z,6.69
2022-11-26T06:00:10.665Z,6.66
2022-11-26T06:05:12.188Z,6.70
2022-11-26T06:10:13.745Z,6.65
2022-11-26T06:15:15.149Z,6.68
2022-11-26T06:20:16.580Z,6.47
2022-11-26T06:25:18.076Z,6.40
2022-11-26T06:30:19.545Z,6.49
2022-11-26T06:35:20.987Z,6.36
2022-11-26T06:40:22.335Z,6.32
2022-11-26T06:45:24.159Z,6.37
2022-11-26T06:50:25.801Z,6.33
2022-11-26T06:55:27.066Z,6.41
2022-11-26T07:00:28.392Z,6.32
2022-11-26T07:05:29.655Z,6.25
2022-11-26T07:10:30.951Z,6.28
2022-11-26T07:15:32.289Z,6.24
2022-11-26T07:20:35.479Z,6.25
2022-11-26T07:25:37.120Z,6.12
2022-11-26T07:30:38.507Z,6.28
2022-11-26T07:35:40.002Z,6.18
2022-11-26T07:40:41.614Z,6.25
2022-11-26T07:45:43.116Z,6.38
2022-11-26T07:50:45.204Z,6.50
2022-11-26T07:55:46.778Z,6.58
2022-11-26T08:00:53.203Z,6.51
2022-11-26T08:05:55.968Z,6.58
2022-11-26T08:10:57.247Z,6.65
2022-11-26T08:15:58.553Z,6.59
2022-11-26T08:21:00.841Z,6.66
2022-11-26T08:31:32.808Z,6.76
2022-11-26T08:36:34.253Z,6.72
2022-11-26T08:41:35.669Z,6.95
2022-11-26T08:46:39.208Z,7.02
2022-11-26T08:51:41.384Z,7.13
2022-11-26T08:56:42.785Z,7.25
2022-11-26T09:01:44.168Z,7.32
2022-11-26T09:06:45.621Z,7.26
2022-11-26T09:11:54.029Z,7.26
2022-11-26T09:16:56.727Z,7.52
2022-11-26T09:21:58.755Z,7.60
2022-11-26T09:27:05.922Z,7.78
2022-11-26T09:32:24.440Z,8.15
2022-11-26T09:37:28.312Z,8.52
2022-11-26T09:42:42.333Z,8.90
2022-11-26T09:47:47.837Z,9.06
2022-11-26T09:53:02.223Z,9.35
2022-11-26T09:58:15.796Z,9.54
2022-11-26T10:03:20.178Z,9.79
2022-11-26T10:08:32.958Z,9.88
2022-11-26T10:13:37.191Z,10.11
2022-11-26T10:18:49.103Z,9.92
2022-11-26T10:24:13.328Z,12.50
2022-11-26T10:29:33.337Z,15.42
2022-11-26T10:34:46.654Z,17.85
2022-11-26T10:39:48.522Z,19.35
2022-11-26T10:44:52.045Z,20.05
2022-11-26T10:49:54.570Z,19.59
2022-11-26T10:55:17.826Z,19.64
2022-11-26T11:00:40.922Z,17.64
2022-11-26T11:05:45.406Z,18.26
2022-11-26T11:10:54.821Z,20.17
2022-11-26T11:16:02.011Z,20.65
2022-11-26T11:21:04.630Z,23.19
2022-11-26T11:26:12.744Z,23.22
2022-11-26T11:31:17.745Z,22.59
2022-11-26T11:36:28.884Z,19.08
2022-11-26T11:41:43.153Z,18.47
2022-11-26T11:46:56.815Z,20.94
2022-11-26T11:52:06.480Z,20.94
2022-11-26T11:57:35.696Z,23.91
2022-11-26T12:02:49.329Z,25.06
2022-11-26T12:08:01.239Z,22.51
2022-11-26T12:13:06.952Z,21.89
2022-11-26T12:18:23.633Z,21.69
2022-11-26T12:23:46.433Z,17.98
2022-11-26T12:28:55.838Z,17.30
2022-11-26T12:34:08.712Z,16.08
2022-11-26T12:39:18.985Z,16.49
2022-11-26T12:44:37.942Z,16.14
2022-11-26T12:50:10.408Z,15.62
2022-11-26T12:55:34.499Z,14.22
2022-11-26T13:00:36.664Z,12.97
2022-11-26T13:05:42.061Z,12.17
2022-11-26T13:10:59.732Z,11.74
2022-11-26T13:16:20.299Z,11.30
2022-11-26T13:21:34.810Z,10.59
2022-11-26T13:27:25.279Z,9.96
2022-11-26T13:32:57.529Z,9.65
2022-11-26T13:38:10.849Z,9.33
2022-11-26T13:43:40.031Z,9.06
2022-11-26T13:48:52.881Z,8.86
2022-11-26T13:54:05.943Z,9.25
2022-11-26T13:59:28.096Z,9.17
2022-11-26T14:04:32.942Z,8.91
2022-11-26T14:09:46.495Z,8.68
2022-11-26T14:14:49.638Z,8.82
2022-11-26T14:19:56.825Z,8.82
2022-11-26T14:25:04.212Z,8.65
2022-11-26T14:30:06.508Z,8.53
2022-11-26T14:35:34.431Z,8.35
2022-11-26T14:40:38.037Z,8.62
2022-11-26T14:45:39.939Z,8.74
2022-11-26T14:50:41.763Z,8.66
2022-11-26T14:55:44.773Z,8.60
2022-11-26T15:01:02.014Z,8.62
2022-11-26T15:06:03.409Z,8.56
2022-11-26T15:11:07.671Z,8.52
2022-11-26T15:16:36.347Z,8.46
2022-11-26T15:21:40.669Z,8.48
2022-11-26T15:26:46.721Z,8.50
2022-11-26T15:31:47.979Z,8.50
2022-11-26T15:36:49.328Z,8.40
2022-11-26T15:41:51.652Z,8.40
2022-11-26T15:46:55.809Z,8.57
2022-11-26T15:52:00.519Z,8.64
2022-11-26T15:57:08.177Z,8.36
2022-11-26T16:02:19.319Z,8.46
2022-11-26T16:07:27.058Z,8.42
2022-11-26T16:12:33.751Z,8.33
2022-11-26T16:17:36.853Z,8.27
2022-11-26T16:22:38.211Z,8.42
2022-11-26T16:27:39.456Z,8.48
2022-11-26T16:32:40.735Z,8.43
2022-11-26T16:37:45.384Z,8.33
2022-11-26T16:42:47.603Z,8.40
2022-11-26T16:47:54.267Z,8.46
2022-11-26T16:52:56.488Z,8.59
2022-11-26T16:58:01.192Z,8.47
2022-11-26T17:03:02.573Z,8.45
2022-11-26T17:08:05.232Z,8.44
2022-11-26T17:13:07.399Z,8.40
2022-11-26T17:18:20.866Z,8.43
2022-11-26T17:23:22.224Z,8.18
2022-11-26T17:28:23.715Z,8.23
2022-11-26T17:33:25.108Z,8.39
2022-11-26T17:38:26.515Z,8.46
2022-11-26T17:43:27.951Z,8.51
2022-11-26T17:48:29.271Z,8.49
2022-11-26T17:53:30.745Z,8.50
2022-11-26T17:58:32.034Z,8.48
2022-11-26T18:03:33.424Z,8.52
2022-11-26T18:08:35.012Z,8.49
2022-11-26T18:13:36.447Z,8.58
2022-11-26T18:18:37.748Z,8.42
2022-11-26T18:23:41.363Z,8.57
2022-11-26T18:28:42.957Z,8.52
2022-11-26T18:33:44.388Z,8.66
2022-11-26T18:38:46.071Z,8.69
2022-11-26T18:43:47.572Z,8.70
2022-11-26T18:48:50.178Z,8.59
2022-11-26T18:53:51.772Z,8.70
2022-11-26T18:58:53.130Z,8.63
2022-11-26T19:03:55.384Z,8.62
2022-11-26T19:09:19.519Z,8.55
2022-11-26T19:14:21.482Z,8.51
2022-11-26T19:19:22.894Z,8.54
2022-11-26T19:24:24.308Z,8.47
2022-11-26T19:29:25.815Z,8.43
2022-11-26T19:34:27.158Z,8.37
2022-11-26T19:39:28.546Z,8.48
2022-11-26T19:44:29.890Z,8.48
2022-11-26T19:49:32.904Z,8.22
2022-11-26T19:54:34.599Z,8.25
2022-11-26T19:59:35.902Z,8.30
2022-11-26T20:04:37.490Z,8.27
2022-11-26T20:09:39.096Z,8.41
2022-11-26T20:14:40.639Z,8.47
2022-11-26T20:19:42.140Z,8.45
2022-11-26T20:24:43.632Z,8.44
2022-11-26T20:29:45.126Z,8.45
2022-11-26T20:34:47.208Z,8.27
2022-11-26T20:39:48.767Z,8.13
2022-11-26T20:44:50.158Z,8.15
2022-11-26T20:49:51.654Z,8.19
2022-11-26T20:54:53.998Z,8.24
2022-11-26T20:59:55.541Z,8.16
2022-11-26T21:04:57.069Z,7.97
2022-11-26T21:09:58.927Z,7.94
2022-11-26T21:15:00.199Z,7.96
2022-11-26T21:20:01.518Z,8.10
2022-11-26T21:25:02.983Z,8.04
2022-11-26T21:30:04.889Z,8.16
2022-11-26T21:35:07.127Z,8.05
2022-11-26T21:40:09.599Z,8.09
2022-11-26T21:45:11.170Z,8.09
2022-11-26T21:50:12.591Z,8.17
2022-11-26T21:55:14.027Z,8.16
2022-11-26T22:00:16.396Z,8.18
2022-11-26T22:05:17.714Z,8.14
2022-11-26T22:10:19.055Z,8.12
2022-11-26T22:15:20.547Z,8.06
2022-11-26T22:20:21.969Z,8.00
2022-11-26T22:25:23.894Z,7.92
2022-11-26T22:30:25.175Z,7.93
2022-11-26T22:35:26.456Z,7.89
2022-11-26T22:40:28.088Z,7.97
2022-11-26T22:45:30.375Z,8.01
2022-11-26T22:50:31.703Z,8.02
2022-11-26T22:55:33.023Z,8.07
2022-11-26T23:01:07.816Z,7.88
2022-11-26T23:06:10.884Z,8.09
2022-11-26T23:11:19.908Z,8.07
2022-11-26T23:16:24.216Z,8.07
2022-11-26T23:21:29.215Z,8.00
2022-11-26T23:26:33.187Z,8.05
2022-11-26T23:31:37.353Z,8.01
2022-11-26T23:36:39.410Z,8.01
2022-11-26T23:41:40.843Z,8.04
2022-11-26T23:46:42.235Z,8.03
2022-11-26T23:51:43.568Z,8.03
2022-11-26T23:56:45.130Z,8.02
